createdAt,value
2018-12-07T00:00:42.856Z,7.93
2018-12-07T00:03:10.382Z,6.90
2018-12-07T00:05:37.895Z,7.77
2018-12-07T00:08:05.415Z,7.27
2018-12-07T00:10:32.923Z,7.87
2018-12-07T00:13:00.463Z,7.30
2018-12-07T00:15:27.974Z,8.00
2018-12-07T00:17:55.522Z,7.47
2018-12-07T00:20:23.053Z,7.50
2018-12-07T00:22:50.572Z,7.07
2018-12-07T00:25:18.112Z,7.83
2018-12-07T00:27:45.635Z,8.10
2018-12-07T00:30:13.264Z,8.10
2018-12-07T00:32:40.772Z,8.27
2018-12-07T00:35:08.286Z,8.40
2018-12-07T00:37:35.792Z,7.73
2018-12-07T00:40:04.566Z,7.70
2018-12-07T00:42:32.082Z,8.57
2018-12-07T00:44:59.613Z,8.20
2018-12-07T00:47:27.375Z,9.17
2018-12-07T00:49:54.891Z,9.23
2018-12-07T00:52:22.403Z,7.57
2018-12-07T00:54:49.936Z,9.00
2018-12-07T00:57:17.448Z,7.80
2018-12-07T00:59:44.987Z,8.20
2018-12-07T01:02:12.504Z,7.50
2018-12-07T01:04:40.004Z,7.97
2018-12-07T01:07:07.567Z,8.73
2018-12-07T01:09:35.104Z,8.60
2018-12-07T01:12:02.616Z,8.10
2018-12-07T01:14:30.181Z,8.20
2018-12-07T01:16:57.863Z,8.63
2018-12-07T01:19:25.399Z,8.70
2018-12-07T01:21:52.908Z,8.67
2018-12-07T01:24:20.447Z,8.33
2018-12-07T01:26:48.010Z,7.70
2018-12-07T01:29:15.587Z,7.40
2018-12-07T01:31:43.119Z,8.40
2018-12-07T01:34:10.633Z,7.93
2018-12-07T01:36:38.151Z,8.77
2018-12-07T01:39:06.204Z,8.43
2018-12-07T01:41:33.718Z,8.73
2018-12-07T01:44:01.329Z,8.17
2018-12-07T01:46:28.866Z,8.63
2018-12-07T01:48:56.374Z,9.07
2018-12-07T01:51:23.888Z,9.07
2018-12-07T01:53:51.401Z,9.33
2018-12-07T01:56:18.911Z,8.63
2018-12-07T01:58:46.434Z,8.33
2018-12-07T02:01:13.953Z,9.03
2018-12-07T02:03:41.459Z,8.93
2018-12-07T02:06:08.986Z,10.13
2018-12-07T02:08:36.525Z,10.30
2018-12-07T02:11:04.131Z,10.93
2018-12-07T02:13:31.672Z,10.77
2018-12-07T02:15:59.194Z,10.57
2018-12-07T02:18:26.811Z,11.07
2018-12-07T02:20:54.407Z,11.53
2018-12-07T02:23:21.915Z,11.23
2018-12-07T02:25:49.436Z,10.83
2018-12-07T02:28:16.952Z,10.77
2018-12-07T02:30:44.474Z,10.50
2018-12-07T02:33:12.014Z,11.07
2018-12-07T02:35:40.204Z,9.90
2018-12-07T02:38:07.740Z,8.93
2018-12-07T02:40:35.254Z,9.03
2018-12-07T02:43:02.775Z,9.90
2018-12-07T02:45:30.580Z,9.33
2018-12-07T02:47:58.098Z,9.17
2018-12-07T02:50:25.608Z,8.73
2018-12-07T02:52:53.176Z,9.10
2018-12-07T02:55:20.807Z,9.17
2018-12-07T02:57:48.336Z,9.40
2018-12-07T03:00:15.846Z,9.43
2018-12-07T03:02:43.412Z,9.00
2018-12-07T03:05:11.025Z,8.80
2018-12-07T03:07:38.562Z,9.20
2018-12-07T03:10:06.093Z,9.33
2018-12-07T03:12:33.651Z,9.03
2018-12-07T03:15:01.159Z,8.53
2018-12-07T03:17:28.672Z,8.43
2018-12-07T03:19:56.375Z,8.90
2018-12-07T03:22:23.908Z,8.37
2018-12-07T03:24:51.409Z,9.03
2018-12-07T03:27:18.921Z,10.80
2018-12-07T03:29:46.437Z,9.60
2018-12-07T03:32:14.075Z,8.27
2018-12-07T03:34:41.584Z,8.63
2018-12-07T03:37:09.221Z,7.60
2018-12-07T03:39:36.914Z,8.43
2018-12-07T03:42:04.535Z,9.60
2018-12-07T03:44:32.158Z,9.20
2018-12-07T03:46:59.677Z,8.63
2018-12-07T03:49:27.336Z,8.47
2018-12-07T03:51:54.843Z,8.70
2018-12-07T03:54:22.362Z,12.93
2018-12-07T03:56:49.886Z,10.47
2018-12-07T03:59:17.413Z,10.40
2018-12-07T04:01:44.955Z,10.53
2018-12-07T04:04:12.487Z,9.53
2018-12-07T04:06:40.144Z,10.47
2018-12-07T04:09:07.651Z,10.00
2018-12-07T04:11:35.161Z,9.63
2018-12-07T04:14:02.690Z,9.27
2018-12-07T04:16:30.211Z,9.03
2018-12-07T04:18:57.754Z,8.53
2018-12-07T04:21:25.272Z,10.33
2018-12-07T04:23:52.792Z,11.07
2018-12-07T04:26:20.333Z,9.67
2018-12-07T04:28:47.838Z,11.30
2018-12-07T04:31:15.515Z,11.27
2018-12-07T04:33:43.057Z,13.13
2018-12-07T04:36:10.558Z,13.17
2018-12-07T04:38:38.087Z,12.43
2018-12-07T04:41:05.593Z,14.57
2018-12-07T04:43:33.108Z,12.10
2018-12-07T04:46:00.620Z,11.37
2018-12-07T04:48:28.151Z,9.90
2018-12-07T04:50:55.685Z,9.90
2018-12-07T04:53:23.197Z,9.60
2018-12-07T04:55:50.717Z,9.00
2018-12-07T04:58:18.225Z,8.87
2018-12-07T05:00:45.762Z,8.10
2018-12-07T05:03:13.338Z,8.27
2018-12-07T05:05:40.913Z,8.20
2018-12-07T05:08:08.432Z,7.70
2018-12-07T05:10:35.975Z,7.50
2018-12-07T05:13:03.568Z,8.17
2018-12-07T05:15:31.088Z,7.87
2018-12-07T05:17:58.602Z,8.30
2018-12-07T05:20:26.122Z,9.30
2018-12-07T05:22:53.637Z,8.67
2018-12-07T05:25:21.193Z,9.20
2018-12-07T05:27:48.706Z,7.83
2018-12-07T05:30:16.240Z,7.73
2018-12-07T05:32:43.757Z,6.90
2018-12-07T05:35:11.284Z,6.87
2018-12-07T05:37:38.796Z,6.30
2018-12-07T05:40:06.319Z,7.80
2018-12-07T05:42:34.055Z,6.53
2018-12-07T05:45:01.574Z,7.23
2018-12-07T05:47:29.091Z,7.80
2018-12-07T05:49:56.607Z,9.47
2018-12-07T05:52:24.289Z,9.40
2018-12-07T05:54:51.809Z,8.30
2018-12-07T05:57:19.537Z,8.60
2018-12-07T05:59:47.063Z,8.27
2018-12-07T06:02:14.583Z,8.97
2018-12-07T06:04:42.104Z,10.23
2018-12-07T06:07:09.617Z,9.20
2018-12-07T06:09:37.138Z,7.67
2018-12-07T06:12:04.645Z,7.37
2018-12-07T06:14:32.171Z,7.83
2018-12-07T06:16:59.723Z,8.30
2018-12-07T06:19:27.233Z,6.77
2018-12-07T06:21:54.757Z,6.50
2018-12-07T06:24:22.274Z,6.57
2018-12-07T06:26:49.782Z,6.43
2018-12-07T06:29:17.371Z,6.07
2018-12-07T06:31:44.891Z,6.33
2018-12-07T06:34:12.411Z,5.83
2018-12-07T06:36:39.939Z,5.07
2018-12-07T06:39:07.617Z,5.80
2018-12-07T06:41:35.305Z,5.37
2018-12-07T06:44:02.809Z,5.87
2018-12-07T06:46:30.319Z,5.20
2018-12-07T06:49:05.169Z,5.87
2018-12-07T06:51:32.708Z,6.17
2018-12-07T06:54:00.305Z,6.00
2018-12-07T06:56:27.811Z,5.60
2018-12-07T06:58:55.320Z,4.97
2018-12-07T07:01:22.819Z,4.57
2018-12-07T07:03:50.338Z,4.80
2018-12-07T07:06:17.867Z,4.77
2018-12-07T07:08:45.382Z,4.67
2018-12-07T07:11:12.951Z,5.30
2018-12-07T07:13:40.455Z,4.77
2018-12-07T07:16:07.971Z,4.90
2018-12-07T07:18:35.500Z,4.20
2018-12-07T07:21:03.111Z,5.13
2018-12-07T07:23:30.653Z,4.50
2018-12-07T07:25:58.177Z,4.50
2018-12-07T07:28:25.729Z,4.90
2018-12-07T07:30:53.263Z,4.80
2018-12-07T07:33:20.786Z,5.80
2018-12-07T07:35:48.378Z,5.20
2018-12-07T07:38:15.900Z,5.80
2018-12-07T07:40:43.490Z,4.93
2018-12-07T07:43:11.015Z,6.10
2018-12-07T07:45:40.170Z,6.10
2018-12-07T07:48:07.675Z,6.87
2018-12-07T07:50:35.188Z,4.87
2018-12-07T07:53:02.702Z,4.67
2018-12-07T07:55:30.208Z,5.70
2018-12-07T07:57:57.728Z,4.23
2018-12-07T08:00:25.237Z,5.07
2018-12-07T08:02:52.896Z,4.87
2018-12-07T08:05:20.428Z,4.30
2018-12-07T08:07:48.067Z,5.07
2018-12-07T08:10:15.575Z,4.80
2018-12-07T08:12:43.116Z,5.60
2018-12-07T08:15:10.623Z,5.23
2018-12-07T08:17:38.225Z,5.53
2018-12-07T08:20:05.746Z,6.00
2018-12-07T08:22:33.354Z,7.23
2018-12-07T08:25:00.867Z,9.33
2018-12-07T08:27:28.377Z,12.13
2018-12-07T08:29:55.900Z,7.20
2018-12-07T08:32:23.426Z,9.93
2018-12-07T08:34:50.942Z,11.90
2018-12-07T08:37:18.442Z,7.37
2018-12-07T08:39:45.958Z,9.93
2018-12-07T08:42:13.538Z,14.67
2018-12-07T08:44:41.063Z,18.33
2018-12-07T08:47:08.593Z,12.17
2018-12-07T08:56:25.515Z,10.83
2018-12-07T08:58:53.036Z,11.40
2018-12-07T09:01:20.572Z,4.77
2018-12-07T09:03:48.105Z,8.10
2018-12-07T09:06:15.645Z,14.00
2018-12-07T09:08:43.151Z,7.47
2018-12-07T09:11:10.667Z,8.10
2018-12-07T09:13:38.187Z,5.33
2018-12-07T09:16:05.723Z,8.67
2018-12-07T09:18:33.236Z,7.60
2018-12-07T09:21:00.757Z,11.37
2018-12-07T09:23:28.309Z,8.73
2018-12-07T09:25:55.843Z,8.10
2018-12-07T09:28:23.353Z,4.20
2018-12-07T09:30:50.869Z,8.57
2018-12-07T09:33:18.381Z,11.87
2018-12-07T09:35:45.898Z,2.60
2018-12-07T09:38:13.569Z,2.60
2018-12-07T09:40:41.087Z,3.83
2018-12-07T09:43:08.614Z,11.07
2018-12-07T09:45:36.130Z,6.93
2018-12-07T09:48:03.694Z,10.53
2018-12-07T09:50:31.226Z,12.10
2018-12-07T09:52:58.751Z,9.50
2018-12-07T09:55:26.271Z,4.80
2018-12-07T09:57:53.793Z,5.90
2018-12-07T10:00:21.306Z,8.00
2018-12-07T10:02:48.835Z,4.27
2018-12-07T10:05:16.362Z,5.67
2018-12-07T10:07:43.876Z,5.67
2018-12-07T10:10:11.379Z,7.53
2018-12-07T10:12:38.887Z,5.10
2018-12-07T10:15:06.398Z,4.60
2018-12-07T10:17:33.946Z,14.77
2018-12-07T10:20:01.461Z,7.20
2018-12-07T10:22:28.983Z,1.23
2018-12-07T10:24:56.491Z,4.80
2018-12-07T10:27:24.006Z,10.97
2018-12-07T10:29:51.517Z,3.40
2018-12-07T10:32:19.026Z,9.67
2018-12-07T10:34:46.531Z,4.73
2018-12-07T10:37:14.048Z,5.83
2018-12-07T10:39:41.550Z,5.67
2018-12-07T10:42:09.145Z,11.10
2018-12-07T10:44:36.785Z,7.23
2018-12-07T10:47:04.316Z,2.83
2018-12-07T10:49:31.832Z,6.83
2018-12-07T10:51:59.345Z,3.23
2018-12-07T10:54:26.904Z,3.43
2018-12-07T10:56:54.414Z,2.30
2018-12-07T10:59:21.922Z,3.90
2018-12-07T11:01:55.174Z,6.83
2018-12-07T11:04:28.366Z,4.60
2018-12-07T11:10:00.944Z,7.93
2018-12-07T11:12:34.043Z,9.77
2018-12-07T11:15:07.256Z,9.03
2018-12-07T11:17:40.349Z,3.53
2018-12-07T11:20:13.564Z,3.07
2018-12-07T11:22:46.682Z,2.63
2018-12-07T11:28:21.759Z,9.50
2018-12-07T11:30:54.846Z,10.30
2018-12-07T11:33:27.979Z,10.90
2018-12-07T11:35:55.471Z,6.83
2018-12-07T11:38:23.013Z,14.27
2018-12-07T11:40:50.559Z,19.30
2018-12-07T11:43:18.098Z,14.47
2018-12-07T11:45:45.609Z,11.97
2018-12-07T11:48:13.145Z,9.50
2018-12-07T11:50:40.671Z,8.23
2018-12-07T11:53:08.195Z,11.70
2018-12-07T11:55:35.707Z,14.27
2018-12-07T11:58:03.235Z,16.60
2018-12-07T12:00:30.769Z,19.83
2018-12-07T12:02:58.305Z,11.27
2018-12-07T12:05:25.823Z,18.63
2018-12-07T12:07:53.328Z,14.87
2018-12-07T12:10:20.845Z,16.93
2018-12-07T12:12:48.392Z,10.80
2018-12-07T12:15:15.902Z,3.70
2018-12-07T12:17:43.419Z,8.00
2018-12-07T12:20:10.945Z,5.83
2018-12-07T12:22:38.463Z,2.23
2018-12-07T12:25:06.352Z,15.07
2018-12-07T12:27:33.890Z,16.30
2018-12-07T12:30:01.417Z,10.80
2018-12-07T12:32:28.953Z,8.43
2018-12-07T12:34:56.459Z,6.07
2018-12-07T12:37:24.218Z,8.77
2018-12-07T12:39:51.746Z,8.60
2018-12-07T12:42:19.271Z,18.30
2018-12-07T12:44:46.799Z,12.13
2018-12-07T12:47:14.315Z,7.63
2018-12-07T12:49:41.857Z,6.03
2018-12-07T12:52:09.366Z,8.83
2018-12-07T12:54:36.877Z,11.07
2018-12-07T12:57:04.384Z,10.20
2018-12-07T12:59:31.943Z,9.10
2018-12-07T13:01:59.467Z,2.77
2018-12-07T13:04:26.989Z,5.57
2018-12-07T13:06:54.511Z,5.30
2018-12-07T13:09:22.051Z,12.27
2018-12-07T13:11:49.572Z,5.83
2018-12-07T13:14:17.114Z,6.40
2018-12-07T13:16:44.642Z,12.77
2018-12-07T13:19:12.250Z,7.50
2018-12-07T13:21:39.772Z,4.07
2018-12-07T13:24:07.366Z,4.63
2018-12-07T13:26:34.885Z,7.17
2018-12-07T13:29:02.412Z,3.13
2018-12-07T13:31:29.926Z,2.63
2018-12-07T13:33:57.436Z,2.47
2018-12-07T13:36:24.938Z,3.30
2018-12-07T13:38:52.528Z,12.47
2018-12-07T13:41:20.094Z,11.87
2018-12-07T13:43:47.835Z,11.73
2018-12-07T13:46:15.623Z,2.43
2018-12-07T13:48:43.359Z,2.70
2018-12-07T13:51:11.195Z,2.40
2018-12-07T13:53:38.936Z,2.20
2018-12-07T13:56:06.652Z,2.30
2018-12-07T13:58:34.330Z,2.27
2018-12-07T14:01:02.138Z,2.50
2018-12-07T14:03:29.813Z,1.90
2018-12-07T14:05:57.451Z,3.57
2018-12-07T14:08:25.289Z,2.50
2018-12-07T14:10:53.030Z,1.93
2018-12-07T14:13:20.607Z,1.47
2018-12-07T14:15:48.130Z,1.60
2018-12-07T14:18:15.774Z,1.40
2018-12-07T14:20:43.481Z,1.53
2018-12-07T14:23:11.037Z,1.50
2018-12-07T14:25:38.695Z,1.40
2018-12-07T14:28:06.409Z,1.80
2018-12-07T14:30:35.973Z,1.53
2018-12-07T14:33:03.885Z,1.90
2018-12-07T14:35:31.504Z,2.10
2018-12-07T14:37:59.127Z,1.90
2018-12-07T14:40:26.775Z,2.57
2018-12-07T14:42:54.553Z,1.63
2018-12-07T14:45:22.436Z,2.07
2018-12-07T14:47:50.031Z,1.93
2018-12-07T14:50:17.693Z,2.73
2018-12-07T14:52:45.333Z,3.27
2018-12-07T14:55:13.113Z,4.20
2018-12-07T14:57:40.989Z,3.20
2018-12-07T15:00:09.030Z,2.97
2018-12-07T15:02:36.810Z,2.93
2018-12-07T15:05:05.320Z,3.13
2018-12-07T15:07:32.915Z,2.70
2018-12-07T15:10:00.604Z,3.30
2018-12-07T15:12:28.201Z,3.30
2018-12-07T15:14:55.986Z,2.90
2018-12-07T15:17:23.930Z,3.77
2018-12-07T15:19:51.698Z,3.60
2018-12-07T15:22:19.300Z,3.73
2018-12-07T15:24:46.938Z,3.50
2018-12-07T15:27:14.612Z,3.73
2018-12-07T15:29:42.457Z,3.53
2018-12-07T15:32:10.243Z,3.47
2018-12-07T15:34:37.969Z,3.50
2018-12-07T15:37:05.869Z,3.40
2018-12-07T15:39:33.576Z,3.97
2018-12-07T15:42:01.157Z,1.10
2018-12-07T15:44:28.879Z,1.20
2018-12-07T15:46:56.654Z,1.80
2018-12-07T15:49:24.612Z,1.77
2018-12-07T15:51:52.370Z,2.47
2018-12-07T15:54:20.006Z,2.30
2018-12-07T15:56:47.723Z,2.77
2018-12-07T15:59:15.623Z,2.50
2018-12-07T16:01:43.538Z,2.17
2018-12-07T16:04:11.274Z,2.60
2018-12-07T16:06:38.873Z,2.93
2018-12-07T16:09:06.876Z,2.60
2018-12-07T16:11:34.609Z,2.90
2018-12-07T16:14:02.207Z,2.40
2018-12-07T16:16:29.733Z,2.70
2018-12-07T16:18:57.743Z,3.00
2018-12-07T16:21:25.702Z,4.37
2018-12-07T16:23:53.511Z,2.10
2018-12-07T16:26:21.183Z,2.20
2018-12-07T16:28:48.815Z,1.93
2018-12-07T16:31:16.872Z,2.00
2018-12-07T16:33:44.773Z,1.83
2018-12-07T16:36:12.455Z,1.90
2018-12-07T16:38:40.048Z,1.73
2018-12-07T16:41:07.788Z,2.20
2018-12-07T16:43:35.388Z,2.23
2018-12-07T16:46:03.151Z,2.10
2018-12-07T16:48:31.002Z,2.53
2018-12-07T16:50:58.569Z,2.63
2018-12-07T16:53:26.562Z,2.60
2018-12-07T16:55:54.281Z,2.47
2018-12-07T16:58:23.784Z,2.83
2018-12-07T17:00:51.497Z,2.93
2018-12-07T17:03:19.331Z,2.80
2018-12-07T17:05:47.159Z,3.90
2018-12-07T17:08:14.935Z,3.43
2018-12-07T17:10:42.563Z,3.50
2018-12-07T17:13:10.239Z,2.87
2018-12-07T17:15:38.160Z,4.27
2018-12-07T17:18:05.746Z,5.50
2018-12-07T17:20:33.378Z,8.37
2018-12-07T17:23:01.242Z,5.67
2018-12-07T17:25:28.926Z,4.53
2018-12-07T17:27:57.085Z,4.53
2018-12-07T17:30:25.073Z,4.03
2018-12-07T17:32:52.859Z,4.33
2018-12-07T17:35:20.449Z,4.00
2018-12-07T17:37:48.245Z,3.83
2018-12-07T17:40:16.067Z,3.40
2018-12-07T17:42:43.661Z,3.90
2018-12-07T17:45:11.300Z,4.50
2018-12-07T17:47:39.161Z,4.00
2018-12-07T17:50:07.421Z,4.13
2018-12-07T17:52:35.151Z,4.23
2018-12-07T17:55:02.785Z,3.93
2018-12-07T17:57:30.437Z,4.33
2018-12-07T17:59:58.132Z,4.13
2018-12-07T18:02:25.723Z,3.40
2018-12-07T18:04:53.293Z,3.73
2018-12-07T18:07:21.761Z,4.73
2018-12-07T18:09:50.052Z,3.40
2018-12-07T18:12:17.710Z,3.73
2018-12-07T18:14:45.291Z,3.30
2018-12-07T18:17:12.903Z,3.60
2018-12-07T18:19:40.465Z,3.27
2018-12-07T18:22:08.256Z,3.93
2018-12-07T18:24:36.300Z,3.23
2018-12-07T18:27:04.088Z,2.87
2018-12-07T18:29:31.866Z,3.80
2018-12-07T18:31:59.688Z,4.00
2018-12-07T18:34:27.435Z,3.13
2018-12-07T18:36:55.073Z,3.70
2018-12-07T18:39:22.665Z,4.37
2018-12-07T18:41:50.303Z,3.63
2018-12-07T18:44:18.097Z,4.07
2018-12-07T18:46:45.787Z,3.23
2018-12-07T18:49:13.622Z,2.73
2018-12-07T18:51:41.625Z,2.77
2018-12-07T18:54:09.532Z,2.77
2018-12-07T18:56:37.170Z,2.90
2018-12-07T18:59:04.688Z,2.63
2018-12-07T19:01:32.474Z,3.07
2018-12-07T19:04:00.120Z,2.80
2018-12-07T19:06:27.708Z,2.57
2018-12-07T19:08:55.471Z,2.30
2018-12-07T19:11:23.212Z,2.90
2018-12-07T19:13:50.808Z,2.77
2018-12-07T19:16:18.391Z,2.97
2018-12-07T19:18:46.120Z,3.10
2018-12-07T19:21:14.056Z,2.30
2018-12-07T19:23:41.931Z,2.33
2018-12-07T19:26:09.671Z,2.70
2018-12-07T19:28:37.625Z,2.80
2018-12-07T19:31:05.384Z,3.17
2018-12-07T19:33:33.291Z,3.10
2018-12-07T19:36:01.119Z,2.80
2018-12-07T19:38:28.701Z,2.87
2018-12-07T19:40:56.355Z,2.60
2018-12-07T19:43:23.907Z,3.43
2018-12-07T19:45:51.499Z,2.77
2018-12-07T19:48:19.051Z,2.77
2018-12-07T19:50:46.780Z,3.10
2018-12-07T19:53:14.749Z,3.17
2018-12-07T19:55:42.345Z,3.53
2018-12-07T19:58:09.960Z,3.13
2018-12-07T20:00:37.735Z,2.87
2018-12-07T20:03:05.398Z,2.40
2018-12-07T20:05:33.161Z,3.23
2018-12-07T20:08:00.764Z,3.10
2018-12-07T20:10:30.061Z,2.80
2018-12-07T20:12:57.900Z,2.27
2018-12-07T20:15:25.695Z,2.93
2018-12-07T20:17:53.535Z,2.73
2018-12-07T20:20:21.174Z,3.80
2018-12-07T20:22:48.726Z,2.70
2018-12-07T20:25:16.362Z,3.20
2018-12-07T20:27:43.978Z,3.10
2018-12-07T20:30:11.846Z,3.03
2018-12-07T20:32:39.468Z,2.80
2018-12-07T20:35:07.092Z,3.03
2018-12-07T20:37:34.702Z,2.57
2018-12-07T20:40:02.296Z,2.67
2018-12-07T20:42:29.887Z,2.80
2018-12-07T20:44:57.581Z,2.90
2018-12-07T20:47:25.492Z,3.43
2018-12-07T20:49:53.392Z,4.70
2018-12-07T20:52:21.162Z,5.23
2018-12-07T20:54:48.870Z,4.60
2018-12-07T20:57:16.936Z,4.13
2018-12-07T20:59:44.663Z,5.50
2018-12-07T21:02:12.290Z,5.43
2018-12-07T21:04:40.451Z,5.10
2018-12-07T21:13:41.161Z,4.63
2018-12-07T21:16:34.441Z,4.80
2018-12-07T21:19:02.142Z,5.07
2018-12-07T21:21:30.042Z,6.10
2018-12-07T21:23:57.837Z,6.57
2018-12-07T21:26:25.401Z,6.30
2018-12-07T21:28:53.359Z,4.60
2018-12-07T21:31:21.105Z,3.40
2018-12-07T21:33:51.785Z,2.90
2018-12-07T21:36:37.799Z,2.90
2018-12-07T21:39:14.213Z,2.77
2018-12-07T21:41:41.803Z,3.37
2018-12-07T21:44:09.478Z,3.43
2018-12-07T21:46:37.306Z,3.10
2018-12-07T21:49:04.994Z,3.70
2018-12-07T21:51:48.161Z,3.30
2018-12-07T21:54:16.113Z,3.57
2018-12-07T21:56:44.234Z,3.83
2018-12-07T21:59:12.180Z,4.03
2018-12-07T22:01:40.050Z,3.53
2018-12-07T22:04:19.829Z,3.70
2018-12-07T22:06:48.187Z,4.00
2018-12-07T22:09:17.178Z,4.33
2018-12-07T22:11:50.521Z,3.30
2018-12-07T22:14:18.800Z,3.87
2018-12-07T22:16:46.418Z,3.73
2018-12-07T22:19:14.924Z,3.80
2018-12-07T22:21:42.774Z,3.53
2018-12-07T22:24:10.335Z,4.33
2018-12-07T22:26:38.008Z,4.27
2018-12-07T22:29:05.720Z,4.27
2018-12-07T22:31:33.438Z,4.60
2018-12-07T22:34:01.338Z,4.40
2018-12-07T22:36:29.272Z,3.33
2018-12-07T22:38:57.122Z,3.37
2018-12-07T22:41:25.035Z,3.53
2018-12-07T22:43:52.794Z,3.73
2018-12-07T22:46:20.658Z,3.33
2018-12-07T22:48:48.261Z,3.70
2018-12-07T22:51:17.865Z,3.57
2018-12-07T22:53:45.375Z,2.80
2018-12-07T22:56:12.889Z,3.50
2018-12-07T22:58:40.399Z,3.20
2018-12-07T23:01:08.759Z,3.07
2018-12-07T23:03:36.281Z,4.03
2018-12-07T23:06:03.895Z,3.07
2018-12-07T23:08:31.403Z,3.93
2018-12-07T23:10:58.905Z,3.43
2018-12-07T23:13:26.415Z,3.37
2018-12-07T23:15:53.923Z,3.67
2018-12-07T23:18:21.441Z,3.77
2018-12-07T23:20:48.945Z,4.00
2018-12-07T23:23:16.453Z,3.07
2018-12-07T23:25:44.003Z,3.70
2018-12-07T23:28:11.533Z,3.33
2018-12-07T23:30:39.043Z,3.40
2018-12-07T23:33:06.575Z,3.80
2018-12-07T23:35:34.079Z,2.93
2018-12-07T23:38:01.584Z,3.40
2018-12-07T23:40:29.100Z,3.50
2018-12-07T23:42:58.569Z,3.47
2018-12-07T23:45:26.079Z,3.27
2018-12-07T23:47:53.582Z,2.87
2018-12-07T23:50:21.175Z,2.73
2018-12-07T23:52:48.829Z,3.20
2018-12-07T23:55:16.359Z,3.20
2018-12-07T23:57:44.014Z,2.97
